TimeAST,TemperatureF,Dew PointF,Humidity,Sea Level PressureIn,VisibilityMPH,Wind Direction,Wind SpeedMPH,Gust SpeedMPH,PrecipitationIn,Events,Conditions,WindDirDegrees,DateUTC
2:00 AM,77.0,73.4,89,29.98,6.2,Calm,Calm,-,N/A,,Scattered Clouds,0,2013-05-20 06:00:00
5:00 AM,75.2,73.4,94,29.98,6.2,Calm,Calm,-,N/A,,Partly Cloudy,0,2013-05-20 09:00:00
8:00 AM,77.0,73.4,89,30.01,6.2,Calm,Calm,-,N/A,,Scattered Clouds,0,2013-05-20 12:00:00
9:00 AM,80.6,75.2,84,30.01,6.2,Calm,Calm,-,N/A,,Scattered Clouds,0,2013-05-20 13:00:00
10:00 AM,84.2,75.2,74,30.01,6.2,ENE,11.5,-,N/A,,Scattered Clouds,70,2013-05-20 14:00:00
11:00 AM,86,76,67,,10,East,11.2,,,,,90,2013-05-20 15:00:00
11:00 AM,86.0,77.0,74,30.01,6.2,East,11.5,-,N/A,,Mostly Cloudy,90,2013-05-20 15:00:00
12:00 PM,86.0,77.0,74,29.98,6.2,East,17.3,-,N/A,,Scattered Clouds,90,2013-05-20 16:00:00
1:00 PM,87.8,75.2,66,29.98,6.2,East,23.0,-,N/A,,Scattered Clouds,90,2013-05-20 17:00:00
2:00 PM,88,76,60,29.99,10,East,15.7,,,,Partly Cloudy,90,2013-05-20 18:00:00
2:00 PM,87.8,75.2,66,29.98,6.2,East,15.0,-,N/A,,Partly Cloudy,90,2013-05-20 18:00:00
3:00 PM,87.8,75.2,66,29.95,6.2,East,16.1,-,N/A,,Scattered Clouds,90,2013-05-20 19:00:00
4:00 PM,86.0,73.4,66,29.95,6.2,East,6.9,-,N/A,,Partly Cloudy,90,2013-05-20 20:00:00
5:00 PM,86,74,61,29.96,10,ESE,15.7,,,,Mostly Cloudy,120,2013-05-20 21:00:00
5:00 PM,86.0,75.2,70,29.95,6.2,ESE,16.1,-,N/A,,Mostly Cloudy,120,2013-05-20 21:00:00
6:00 PM,86.0,73.4,66,29.95,6.2,East,13.8,-,N/A,,Scattered Clouds,90,2013-05-20 22:00:00
7:00 PM,82.4,75.2,79,29.98,6.2,SSE,13.8,-,N/A,,Scattered Clouds,150,2013-05-20 23:00:00
8:00 PM,80.6,71.6,74,29.98,6.2,Calm,Calm,-,N/A,,Mostly Cloudy,0,2013-05-21 00:00:00
11:00 PM,78,71,74,30.02,10,Calm,Calm,,,,Partly Cloudy,,2013-05-21 03:00:00
11:00 PM,77.0,71.6,83,30.01,6.2,Calm,Calm,-,N/A,,Scattered Clouds,0,2013-05-21 03:00:00